Time;durP1;ratioP1;P1;durP2;ratioP2;P2;SDS_P1;SDS_P2;PMS_P1;PMS_P2;Temp;Humidity;BMP_temperature;BMP_pressure;BME280_temperature;BME280_humidity;BME280_pressure;Samples;Min_cycle;Max_cycle;Signal;HPM_P1;HPM_P2
2023/09/17 00:00:44;;;;;;;16.85;14.73;;;15.90;99.90;;;;;;5139753;27;20030;-63
2023/09/17 00:03:13;;;;;;;15.93;14.32;;;15.90;99.90;;;;;;5120451;27;20128;-63
2023/09/17 00:05:38;;;;;;;16.45;14.27;;;15.90;99.90;;;;;;5136602;27;20047;-63
2023/09/17 00:08:04;;;;;;;16.17;13.90;;;15.90;99.90;;;;;;5119286;27;20049;-63
2023/09/17 00:10:30;;;;;;;15.15;13.65;;;15.90;99.90;;;;;;5118620;27;20042;-64
2023/09/17 00:12:56;;;;;;;15.60;13.13;;;15.90;99.90;;;;;;5117953;27;20484;-63
2023/09/17 00:15:25;;;;;;;16.27;14.02;;;15.90;99.90;;;;;;5141306;27;20046;-64
2023/09/17 00:17:52;;;;;;;14.35;12.93;;;15.90;99.90;;;;;;5118945;27;20816;-64
2023/09/17 00:20:17;;;;;;;15.35;13.70;;;15.90;99.90;;;;;;5118712;27;20066;-63
2023/09/17 00:22:43;;;;;;;15.10;13.48;;;15.90;99.90;;;;;;5119042;27;20814;-64
2023/09/17 00:25:09;;;;;;;15.73;13.48;;;15.90;99.90;;;;;;5140513;27;20099;-64
2023/09/17 00:27:34;;;;;;;14.30;12.90;;;16.00;99.90;;;;;;5137453;27;20046;-64
2023/09/17 00:30:00;;;;;;;15.50;13.30;;;16.00;99.90;;;;;;5116539;27;20047;-64
2023/09/17 00:32:26;;;;;;;14.98;13.38;;;16.00;99.90;;;;;;5119484;27;20129;-63
2023/09/17 00:34:51;;;;;;;14.02;12.65;;;16.00;99.90;;;;;;5137970;27;20072;-63
2023/09/17 00:37:18;;;;;;;14.00;12.45;;;16.00;99.90;;;;;;5116505;27;20027;-64
2023/09/17 00:39:44;;;;;;;13.70;12.40;;;16.00;99.90;;;;;;5119488;27;20083;-63
2023/09/17 00:42:10;;;;;;;13.45;12.15;;;16.00;99.90;;;;;;5120786;27;20034;-63
2023/09/17 00:44:37;;;;;;;15.52;12.98;;;16.00;99.90;;;;;;5118993;27;20386;-64
2023/09/17 00:47:04;;;;;;;13.85;12.55;;;16.00;99.90;;;;;;5117739;27;20107;-63
2023/09/17 00:49:31;;;;;;;15.30;13.20;;;16.00;99.90;;;;;;5117321;27;20610;-62
2023/09/17 00:51:57;;;;;;;13.30;12.00;;;16.00;99.90;;;;;;5118165;27;20404;-64
2023/09/17 00:54:25;;;;;;;14.77;13.23;;;16.10;99.90;;;;;;5098808;27;20034;-62
2023/09/17 00:56:51;;;;;;;13.27;11.57;;;16.10;99.90;;;;;;5119025;27;20031;-63
2023/09/17 00:59:17;;;;;;;13.32;12.00;;;16.10;99.90;;;;;;5100078;27;20405;-64
2023/09/17 01:01:44;;;;;;;14.10;12.27;;;16.10;99.90;;;;;;5102848;27;20537;-62
2023/09/17 01:04:12;;;;;;;13.55;12.15;;;16.10;99.90;;;;;;5118756;27;20165;-64
2023/09/17 01:06:40;;;;;;;14.20;12.73;;;16.10;99.90;;;;;;5119053;27;20051;-64
2023/09/17 01:09:09;;;;;;;14.00;12.60;;;16.10;99.90;;;;;;5117509;27;20553;-63
2023/09/17 01:11:38;;;;;;;13.80;12.38;;;16.10;99.90;;;;;;5140384;27;20035;-63
2023/09/17 01:14:13;;;;;;;14.82;13.25;;;16.10;99.90;;;;;;5117028;27;21831;-63
2023/09/17 01:16:46;;;;;;;13.55;12.15;;;16.10;99.90;;;;;;5117367;27;20075;-64
2023/09/17 01:19:20;;;;;;;17.35;12.85;;;16.10;99.90;;;;;;5117914;27;20035;-63
2023/09/17 01:22:14;;;;;;;13.85;12.45;;;16.00;99.90;;;;;;5120234;27;20111;-64
2023/09/17 01:24:40;;;;;;;15.27;13.65;;;16.10;99.90;;;;;;5124017;27;20125;-63
2023/09/17 01:27:07;;;;;;;15.23;13.63;;;16.00;99.90;;;;;;5124983;27;20750;-63
2023/09/17 01:29:38;;;;;;;14.73;13.32;;;16.00;99.90;;;;;;5140154;27;20043;-63
2023/09/17 01:32:05;;;;;;;15.48;12.55;;;16.00;99.90;;;;;;5142188;27;20038;-63
2023/09/17 01:34:37;;;;;;;14.10;12.60;;;16.00;99.90;;;;;;5139868;27;20039;-63
2023/09/17 01:37:08;;;;;;;12.88;11.57;;;16.00;99.90;;;;;;5122231;27;20047;-63
2023/09/17 01:39:44;;;;;;;15.25;13.25;;;16.00;99.90;;;;;;5123526;27;20137;-63
2023/09/17 01:42:11;;;;;;;13.65;12.25;;;16.00;99.90;;;;;;5123955;27;20468;-63
2023/09/17 01:44:37;;;;;;;13.25;11.88;;;16.00;99.90;;;;;;5105135;27;20051;-64
2023/09/17 01:47:04;;;;;;;14.63;13.20;;;16.00;99.90;;;;;;5121581;27;20393;-64
2023/09/17 01:49:32;;;;;;;13.70;12.07;;;16.00;99.90;;;;;;5121329;27;20133;-63
2023/09/17 01:51:58;;;;;;;14.27;12.80;;;16.00;99.90;;;;;;5103025;27;20135;-63
2023/09/17 01:54:25;;;;;;;14.73;12.15;;;16.00;99.90;;;;;;5121167;27;20581;-64
2023/09/17 01:56:51;;;;;;;14.00;12.50;;;16.00;99.90;;;;;;5107843;27;20054;-63
2023/09/17 01:59:17;;;;;;;15.77;12.88;;;16.00;99.90;;;;;;5140500;27;20039;-63
2023/09/17 02:01:43;;;;;;;14.43;13.02;;;15.90;99.90;;;;;;5121289;27;20050;-63
2023/09/17 02:04:09;;;;;;;13.93;11.55;;;16.00;99.90;;;;;;5141301;27;20042;-64
2023/09/17 02:06:36;;;;;;;13.02;11.40;;;16.00;99.90;;;;;;5140878;27;20031;-63
2023/09/17 02:09:05;;;;;;;12.70;11.23;;;16.00;99.90;;;;;;5122224;27;20081;-63
2023/09/17 02:11:31;;;;;;;14.30;12.73;;;16.00;99.90;;;;;;5122921;27;21336;-63
2023/09/17 02:13:57;;;;;;;13.65;11.93;;;16.00;99.90;;;;;;5120405;27;20170;-63
2023/09/17 02:16:23;;;;;;;13.80;12.52;;;15.90;99.90;;;;;;5122986;27;20630;-63
2023/09/17 02:18:51;;;;;;;13.32;12.02;;;15.90;99.90;;;;;;5120651;27;20062;-64
2023/09/17 02:21:16;;;;;;;14.93;13.35;;;15.90;99.90;;;;;;5121207;27;20095;-63
2023/09/17 02:23:44;;;;;;;16.15;13.40;;;15.90;99.90;;;;;;5122198;27;20434;-63
2023/09/17 02:26:10;;;;;;;14.57;13.00;;;15.90;99.90;;;;;;5123058;27;20183;-64
2023/09/17 02:28:35;;;;;;;15.15;13.52;;;15.90;99.90;;;;;;5120585;27;20389;-65
2023/09/17 02:31:02;;;;;;;13.55;12.25;;;15.90;99.90;;;;;;5118549;27;20043;-63
2023/09/17 02:33:28;;;;;;;17.92;15.55;;;15.80;99.90;;;;;;5118907;27;20089;-64
2023/09/17 02:35:54;;;;;;;16.23;14.00;;;15.80;99.90;;;;;;5121156;27;20960;-63
2023/09/17 02:38:19;;;;;;;16.60;14.95;;;15.80;99.90;;;;;;5139071;27;20052;-64
2023/09/17 02:40:45;;;;;;;15.82;14.23;;;15.80;99.90;;;;;;5139206;27;20034;-64
2023/09/17 02:43:11;;;;;;;15.75;14.15;;;15.80;99.90;;;;;;5123394;27;20031;-63
2023/09/17 02:45:36;;;;;;;18.52;15.30;;;15.80;99.90;;;;;;5118711;27;20046;-63
2023/09/17 02:48:02;;;;;;;15.43;13.82;;;15.70;99.90;;;;;;5119468;27;20058;-63
2023/09/17 02:50:28;;;;;;;19.25;15.63;;;15.70;99.90;;;;;;5139123;27;20042;-64
2023/09/17 02:52:54;;;;;;;16.75;15.00;;;15.70;99.90;;;;;;5121545;27;20646;-63
2023/09/17 02:55:20;;;;;;;17.25;15.45;;;15.70;99.90;;;;;;5119476;27;20076;-64
2023/09/17 02:57:45;;;;;;;19.02;16.38;;;15.70;99.90;;;;;;5140311;27;20038;-63
2023/09/17 03:00:13;;;;;;;17.30;15.60;;;15.60;99.90;;;;;;5138281;27;20105;-63
2023/09/17 03:02:38;;;;;;;17.02;15.25;;;15.60;99.90;;;;;;5121809;27;20035;-63
2023/09/17 03:05:05;;;;;;;18.63;16.63;;;15.60;99.90;;;;;;5123768;27;20043;-64
2023/09/17 03:07:32;;;;;;;18.70;16.73;;;15.60;99.90;;;;;;5117589;27;20508;-63
2023/09/17 03:09:59;;;;;;;17.88;16.08;;;15.60;99.90;;;;;;5114679;27;20043;-64
2023/09/17 03:12:26;;;;;;;18.23;16.33;;;15.70;99.90;;;;;;5124284;27;20122;-63
2023/09/17 03:14:52;;;;;;;18.85;16.70;;;15.70;99.90;;;;;;5149651;27;20038;-64
2023/09/17 03:17:18;;;;;;;19.08;16.92;;;15.70;99.90;;;;;;5123232;27;20059;-63
2023/09/17 03:19:43;;;;;;;17.63;15.88;;;15.70;99.90;;;;;;5129932;27;20062;-63
2023/09/17 03:22:09;;;;;;;18.98;16.98;;;15.70;99.90;;;;;;5122302;27;20503;-64
2023/09/17 03:24:35;;;;;;;18.95;17.00;;;15.70;99.90;;;;;;5127616;27;20156;-63
2023/09/17 03:27:00;;;;;;;20.35;18.20;;;15.70;99.90;;;;;;5129095;27;20054;-63
2023/09/17 03:29:26;;;;;;;20.15;18.05;;;15.70;99.90;;;;;;5126826;27;20077;-62
2023/09/17 03:31:52;;;;;;;19.40;17.10;;;15.70;99.90;;;;;;5136877;27;20039;-62
2023/09/17 03:34:18;;;;;;;21.13;18.50;;;15.70;99.90;;;;;;5117600;27;20039;-63
2023/09/17 03:36:43;;;;;;;20.67;17.85;;;15.70;99.90;;;;;;5121129;27;20381;-63
2023/09/17 03:39:09;;;;;;;21.30;17.55;;;15.70;99.90;;;;;;5127752;27;20412;-63
2023/09/17 03:41:34;;;;;;;19.50;17.42;;;15.70;99.90;;;;;;5117204;27;20031;-63
2023/09/17 03:44:01;;;;;;;20.27;18.13;;;15.70;99.90;;;;;;5122270;27;20031;-63
2023/09/17 03:46:26;;;;;;;20.17;18.17;;;15.70;99.90;;;;;;5133639;27;20125;-63
2023/09/17 03:48:52;;;;;;;20.67;18.52;;;15.70;99.90;;;;;;5117269;27;20139;-63
2023/09/17 03:51:18;;;;;;;19.27;17.27;;;15.80;99.90;;;;;;5123387;27;20091;-63
2023/09/17 03:53:43;;;;;;;19.83;17.88;;;15.70;99.90;;;;;;5119465;27;20531;-63
2023/09/17 03:56:11;;;;;;;21.15;18.92;;;15.70;99.90;;;;;;5119305;27;20046;-64
2023/09/17 03:58:37;;;;;;;22.67;18.40;;;15.70;99.90;;;;;;5127961;27;20038;-64
2023/09/17 04:01:06;;;;;;;20.88;18.67;;;15.70;99.90;;;;;;5128894;27;20046;-63
2023/09/17 04:03:32;;;;;;;19.70;17.73;;;15.80;99.90;;;;;;5139040;27;20046;-64
2023/09/17 04:05:57;;;;;;;22.08;18.92;;;15.80;99.90;;;;;;5140232;27;20082;-64
2023/09/17 04:08:24;;;;;;;21.90;18.58;;;15.80;99.90;;;;;;5116674;27;20043;-64
2023/09/17 04:10:56;;;;;;;21.63;19.38;;;15.80;99.90;;;;;;5120416;27;20058;-63
2023/09/17 04:13:21;;;;;;;22.25;19.75;;;15.80;99.90;;;;;;5127890;27;20035;-64
2023/09/17 04:15:49;;;;;;;23.73;19.85;;;15.80;99.90;;;;;;5132409;27;20035;-62
2023/09/17 04:18:14;;;;;;;22.23;19.90;;;15.80;99.90;;;;;;5128571;27;20057;-63
2023/09/17 04:20:40;;;;;;;23.20;20.70;;;15.80;99.90;;;;;;5123571;27;20027;-63
2023/09/17 04:23:06;;;;;;;24.67;22.27;;;15.80;99.90;;;;;;5108194;27;20096;-63
2023/09/17 04:25:34;;;;;;;21.98;19.63;;;15.80;99.90;;;;;;5123568;27;20028;-64
2023/09/17 04:28:00;;;;;;;24.52;20.65;;;15.80;99.90;;;;;;5126930;27;20860;-63
2023/09/17 04:30:26;;;;;;;23.17;20.55;;;15.80;99.90;;;;;;5115872;27;20141;-63
2023/09/17 04:32:54;;;;;;;23.48;21.02;;;15.80;99.90;;;;;;5122712;27;20134;-63
2023/09/17 04:35:20;;;;;;;21.70;19.48;;;15.80;99.90;;;;;;5102236;27;20486;-63
2023/09/17 04:37:48;;;;;;;22.27;19.98;;;15.80;99.90;;;;;;5122198;27;20092;-64
2023/09/17 04:40:14;;;;;;;22.08;19.75;;;15.80;99.90;;;;;;5125648;27;20045;-63
2023/09/17 04:42:43;;;;;;;25.63;22.20;;;15.80;99.90;;;;;;5149057;27;20039;-63
2023/09/17 04:45:09;;;;;;;23.15;20.70;;;15.80;99.90;;;;;;5096307;27;20035;-63
2023/09/17 04:47:36;;;;;;;25.00;21.95;;;15.80;99.90;;;;;;5148164;27;20074;-63
2023/09/17 04:50:08;;;;;;;23.23;20.70;;;15.80;99.90;;;;;;5120408;27;20066;-63
2023/09/17 04:52:34;;;;;;;22.42;20.17;;;15.80;99.90;;;;;;5097370;27;20039;-63
2023/09/17 04:55:00;;;;;;;23.88;21.08;;;15.80;99.90;;;;;;5133550;27;20091;-64
2023/09/17 04:57:26;;;;;;;23.65;21.15;;;15.80;99.90;;;;;;5136660;27;20043;-64
2023/09/17 04:59:51;;;;;;;26.23;22.65;;;15.80;99.90;;;;;;5128230;27;20033;-63
2023/09/17 05:02:17;;;;;;;23.83;21.35;;;15.80;99.90;;;;;;5138378;27;20439;-62
2023/09/17 05:04:44;;;;;;;25.75;21.48;;;15.70;99.90;;;;;;5128535;27;20120;-62
2023/09/17 05:07:10;;;;;;;24.38;20.80;;;15.70;99.90;;;;;;5112795;28;20039;-64
2023/09/17 05:09:37;;;;;;;24.40;21.75;;;15.70;99.90;;;;;;5120472;27;20039;-63
2023/09/17 05:12:04;;;;;;;24.90;21.42;;;15.70;99.90;;;;;;5096517;27;20054;-63
2023/09/17 05:14:29;;;;;;;25.52;22.50;;;15.70;99.90;;;;;;5116006;27;20057;-63
2023/09/17 05:16:55;;;;;;;25.65;22.88;;;15.80;99.90;;;;;;5123673;27;20038;-62
2023/09/17 05:19:21;;;;;;;24.80;21.98;;;15.70;99.90;;;;;;5121857;27;20496;-62
2023/09/17 05:21:46;;;;;;;25.13;21.65;;;15.70;99.90;;;;;;5141537;27;20130;-63
2023/09/17 05:24:13;;;;;;;25.73;21.25;;;15.70;99.90;;;;;;5125397;27;20038;-63
2023/09/17 05:26:39;;;;;;;26.35;23.65;;;15.80;99.90;;;;;;5123251;27;20027;-64
2023/09/17 05:29:04;;;;;;;27.20;22.83;;;15.80;99.90;;;;;;5124685;27;20425;-62
2023/09/17 05:31:30;;;;;;;29.65;24.33;;;15.80;99.90;;;;;;5126413;27;20050;-63
2023/09/17 05:33:57;;;;;;;26.08;23.13;;;15.80;99.90;;;;;;5121429;27;20050;-62
2023/09/17 05:36:23;;;;;;;30.67;24.45;;;15.80;99.90;;;;;;5122113;27;20058;-63
2023/09/17 05:38:49;;;;;;;27.00;24.13;;;15.80;99.90;;;;;;5139855;27;20050;-63
2023/09/17 05:41:15;;;;;;;28.98;24.38;;;15.80;99.90;;;;;;5118294;27;20039;-63
2023/09/17 05:43:41;;;;;;;28.50;24.88;;;15.80;99.90;;;;;;5141507;27;20039;-63
2023/09/17 05:46:06;;;;;;;32.72;27.05;;;15.90;99.90;;;;;;5121434;27;20420;-63
2023/09/17 05:48:32;;;;;;;30.58;25.23;;;15.90;99.90;;;;;;5128651;27;20059;-63
2023/09/17 05:50:58;;;;;;;27.95;24.40;;;15.90;99.90;;;;;;5122008;27;20039;-63
2023/09/17 05:53:23;;;;;;;29.40;26.15;;;15.90;99.90;;;;;;5115120;27;20052;-63
2023/09/17 05:55:49;;;;;;;29.55;25.50;;;15.90;99.90;;;;;;5119210;27;20074;-63
2023/09/17 05:58:15;;;;;;;30.17;26.90;;;15.90;99.90;;;;;;5121858;27;20046;-63
2023/09/17 06:00:41;;;;;;;29.58;25.95;;;16.00;99.90;;;;;;5127409;27;20066;-62
2023/09/17 06:03:06;;;;;;;29.55;26.08;;;16.00;99.90;;;;;;5118933;27;20871;-63
2023/09/17 06:05:32;;;;;;;29.73;26.52;;;16.00;99.90;;;;;;5143615;27;20027;-64
2023/09/17 06:07:58;;;;;;;30.73;27.20;;;16.10;99.90;;;;;;5104050;27;20054;-64
2023/09/17 06:10:23;;;;;;;31.13;27.50;;;16.10;99.90;;;;;;5122274;27;20458;-63
2023/09/17 06:12:50;;;;;;;32.58;26.70;;;16.10;99.90;;;;;;5129969;27;20043;-63
2023/09/17 06:15:15;;;;;;;31.35;27.23;;;16.10;99.90;;;;;;5151289;27;20425;-63
2023/09/17 06:17:41;;;;;;;30.42;27.13;;;16.20;99.90;;;;;;5154834;27;20073;-63
2023/09/17 06:20:08;;;;;;;30.85;27.55;;;16.20;99.90;;;;;;5124669;27;20049;-63
2023/09/17 06:22:34;;;;;;;30.83;27.35;;;16.20;99.90;;;;;;5134879;27;20445;-64
2023/09/17 06:24:59;;;;;;;31.77;27.10;;;16.20;99.90;;;;;;5121892;27;20043;-63
2023/09/17 06:27:25;;;;;;;30.92;27.38;;;16.30;99.90;;;;;;5124703;27;20043;-62
2023/09/17 06:29:51;;;;;;;31.23;27.42;;;16.30;99.90;;;;;;5132293;27;20030;-63
2023/09/17 06:32:17;;;;;;;31.15;26.73;;;16.30;99.90;;;;;;5128164;27;20102;-63
2023/09/17 06:34:43;;;;;;;30.95;26.75;;;16.30;99.90;;;;;;5119839;27;20084;-63
2023/09/17 06:37:08;;;;;;;28.65;25.77;;;16.30;99.90;;;;;;5145347;27;20456;-63
2023/09/17 06:39:35;;;;;;;28.65;24.65;;;16.30;99.90;;;;;;5116215;27;20066;-63
2023/09/17 06:42:01;;;;;;;29.23;25.85;;;16.30;99.90;;;;;;5120610;27;20388;-63
2023/09/17 06:44:26;;;;;;;28.13;25.08;;;16.40;99.90;;;;;;5120161;27;20043;-63
2023/09/17 06:46:52;;;;;;;26.63;23.85;;;16.40;99.90;;;;;;5115108;27;20037;-64
2023/09/17 06:49:18;;;;;;;27.88;24.00;;;16.40;99.90;;;;;;5114847;27;20051;-63
2023/09/17 06:51:44;;;;;;;26.77;24.08;;;16.40;99.90;;;;;;5115491;27;20114;-63
2023/09/17 06:54:09;;;;;;;28.35;25.27;;;16.40;99.90;;;;;;5130686;27;20179;-63
2023/09/17 06:56:35;;;;;;;26.98;24.13;;;16.40;99.90;;;;;;5119163;27;20238;-62
2023/09/17 06:59:04;;;;;;;24.00;21.50;;;16.40;99.90;;;;;;5122123;27;20397;-63
2023/09/17 07:01:33;;;;;;;28.83;25.63;;;16.40;99.90;;;;;;5108754;27;20182;-63
2023/09/17 07:03:58;;;;;;;31.13;25.60;;;16.50;99.90;;;;;;5125277;27;20545;-63
2023/09/17 07:06:24;;;;;;;27.52;24.48;;;16.40;99.90;;;;;;5125243;27;20043;-63
2023/09/17 07:08:52;;;;;;;27.35;24.38;;;16.50;99.90;;;;;;5122984;27;20057;-62
2023/09/17 07:11:18;;;;;;;32.70;25.05;;;16.40;99.90;;;;;;5128422;27;20038;-64
2023/09/17 07:13:43;;;;;;;27.48;24.58;;;16.50;99.90;;;;;;5118565;27;20509;-64
2023/09/17 07:16:09;;;;;;;25.83;23.05;;;16.50;99.90;;;;;;5115830;27;20135;-63
2023/09/17 07:18:35;;;;;;;27.05;24.27;;;16.50;99.90;;;;;;5127103;27;20047;-64
2023/09/17 07:21:00;;;;;;;27.35;24.55;;;16.40;99.90;;;;;;5114350;27;20076;-64
2023/09/17 07:23:26;;;;;;;25.23;21.95;;;16.50;99.90;;;;;;5125824;27;20035;-63
2023/09/17 07:25:51;;;;;;;25.67;22.88;;;16.50;99.90;;;;;;5134405;27;20034;-63
2023/09/17 07:28:18;;;;;;;23.90;21.25;;;16.50;99.90;;;;;;5121936;27;20043;-63
2023/09/17 07:30:44;;;;;;;22.58;20.05;;;16.50;99.90;;;;;;5121021;27;20047;-63
2023/09/17 07:33:10;;;;;;;23.02;20.42;;;16.50;99.90;;;;;;5127233;27;20041;-63
2023/09/17 07:35:38;;;;;;;22.45;20.15;;;16.50;99.90;;;;;;5123325;27;20407;-63
2023/09/17 07:38:04;;;;;;;20.83;18.63;;;16.50;99.90;;;;;;5146776;27;20035;-63
2023/09/17 07:40:30;;;;;;;21.73;19.60;;;16.50;99.90;;;;;;5139294;27;20115;-64
2023/09/17 07:42:56;;;;;;;21.35;19.15;;;16.60;99.90;;;;;;5124737;27;20035;-63
2023/09/17 07:45:21;;;;;;;21.55;19.13;;;16.60;99.90;;;;;;5145422;27;20087;-64
2023/09/17 07:47:47;;;;;;;21.00;18.80;;;16.60;99.90;;;;;;5119602;27;20043;-63
2023/09/17 07:50:13;;;;;;;22.10;19.70;;;16.60;99.90;;;;;;5116056;27;20448;-63
2023/09/17 07:52:40;;;;;;;20.42;18.33;;;16.60;99.90;;;;;;5112136;27;20123;-64
2023/09/17 07:55:06;;;;;;;22.10;19.73;;;16.60;99.90;;;;;;5108841;27;20044;-64
2023/09/17 07:57:32;;;;;;;24.90;19.85;;;16.70;99.90;;;;;;5108587;27;20047;-63
2023/09/17 07:59:57;;;;;;;23.65;19.60;;;16.60;99.90;;;;;;5107625;27;20387;-63
2023/09/17 08:02:23;;;;;;;20.92;18.80;;;16.70;99.90;;;;;;5107620;27;20467;-63
2023/09/17 08:04:49;;;;;;;21.85;18.77;;;16.70;99.90;;;;;;5108387;28;20083;-62
2023/09/17 08:07:15;;;;;;;21.30;18.88;;;16.70;99.90;;;;;;5109810;28;20032;-64
2023/09/17 08:09:41;;;;;;;20.95;18.80;;;16.70;99.90;;;;;;5110266;28;20103;-64
2023/09/17 08:12:06;;;;;;;21.92;17.77;;;16.70;99.90;;;;;;5109557;28;20558;-62
2023/09/17 08:14:35;;;;;;;21.38;18.42;;;16.70;99.90;;;;;;5109815;28;20390;-62
2023/09/17 08:17:02;;;;;;;19.80;17.73;;;16.70;99.90;;;;;;5108792;28;20039;-64
2023/09/17 08:19:28;;;;;;;22.83;19.55;;;16.70;99.90;;;;;;5107371;28;20046;-63
2023/09/17 08:21:53;;;;;;;19.48;17.02;;;16.70;99.90;;;;;;5109144;28;20040;-63
2023/09/17 08:24:23;;;;;;;21.85;18.85;;;16.70;99.90;;;;;;5111579;27;20035;-63
2023/09/17 08:26:49;;;;;;;23.35;19.35;;;16.70;99.90;;;;;;5107944;28;20097;-63
2023/09/17 08:29:15;;;;;;;21.17;18.88;;;16.80;99.90;;;;;;5109350;28;20478;-62
2023/09/17 08:31:41;;;;;;;20.17;18.13;;;16.80;99.90;;;;;;5105879;28;20048;-61
2023/09/17 08:34:06;;;;;;;17.92;16.13;;;16.80;99.90;;;;;;5109249;28;20039;-63
2023/09/17 08:36:32;;;;;;;18.50;16.52;;;16.80;99.90;;;;;;5106819;28;20052;-63
2023/09/17 08:38:58;;;;;;;19.23;17.33;;;16.80;99.90;;;;;;5104229;28;20044;-62
2023/09/17 08:41:24;;;;;;;20.90;18.52;;;16.80;99.90;;;;;;5109733;28;20092;-62
2023/09/17 08:43:52;;;;;;;20.45;18.20;;;16.90;99.90;;;;;;5092662;28;20119;-62
2023/09/17 08:46:20;;;;;;;22.33;19.98;;;16.90;99.90;;;;;;5109318;28;20046;-63
2023/09/17 08:48:46;;;;;;;23.77;21.48;;;16.90;99.90;;;;;;5110445;27;20055;-64
2023/09/17 08:51:15;;;;;;;23.70;21.20;;;16.90;99.90;;;;;;5115454;27;20409;-63
2023/09/17 08:54:04;;;;;;;24.15;21.65;;;16.90;99.90;;;;;;5100998;27;20135;-63
2023/09/17 08:56:32;;;;;;;21.60;19.33;;;17.00;99.90;;;;;;5121156;27;20122;-63
2023/09/17 08:59:08;;;;;;;24.85;22.20;;;17.10;99.90;;;;;;5128112;27;20052;-64
2023/09/17 09:01:37;;;;;;;22.80;20.33;;;17.10;99.90;;;;;;5121566;27;20512;-63
2023/09/17 09:04:05;;;;;;;23.13;20.73;;;17.20;99.90;;;;;;5119372;27;20034;-63
2023/09/17 09:06:32;;;;;;;24.80;21.60;;;17.30;99.90;;;;;;5119986;27;20170;-63
2023/09/17 09:08:58;;;;;;;25.67;23.05;;;17.40;99.90;;;;;;5117669;28;20043;-63
2023/09/17 09:11:24;;;;;;;25.05;22.45;;;17.40;99.90;;;;;;5123370;28;20058;-64
2023/09/17 09:13:53;;;;;;;25.40;22.90;;;17.50;99.90;;;;;;5108796;28;20040;-62
2023/09/17 09:16:19;;;;;;;24.70;22.15;;;17.60;99.90;;;;;;5116172;28;20055;-64
2023/09/17 09:18:45;;;;;;;23.73;21.45;;;17.70;99.90;;;;;;5120876;28;20121;-62
2023/09/17 09:21:13;;;;;;;23.67;21.27;;;17.80;99.90;;;;;;5116907;28;20164;-63
2023/09/17 09:23:38;;;;;;;24.25;21.75;;;17.90;99.90;;;;;;5118434;28;20039;-63
2023/09/17 09:26:06;;;;;;;22.52;20.15;;;18.00;99.90;;;;;;5119890;28;20057;-64
2023/09/17 09:28:32;;;;;;;22.25;19.95;;;18.10;99.90;;;;;;5113158;28;20042;-63
2023/09/17 09:30:58;;;;;;;22.92;20.60;;;18.20;99.90;;;;;;5111986;28;20253;-63
2023/09/17 09:33:24;;;;;;;22.58;20.30;;;18.30;99.90;;;;;;5121719;28;20047;-63
2023/09/17 09:35:50;;;;;;;21.95;19.75;;;18.40;99.90;;;;;;5122862;28;20122;-62
2023/09/17 09:38:18;;;;;;;22.85;20.65;;;18.40;99.90;;;;;;5118083;28;20130;-63
2023/09/17 09:40:44;;;;;;;26.33;20.60;;;18.40;99.90;;;;;;5119211;28;20032;-64
2023/09/17 09:43:30;;;;;;;22.23;19.73;;;18.50;99.90;;;;;;5129344;27;20393;-63
2023/09/17 09:46:04;;;;;;;23.13;20.67;;;18.50;99.90;;;;;;5114526;27;20043;-63
2023/09/17 09:48:39;;;;;;;23.17;20.92;;;18.40;99.90;;;;;;5115750;27;20070;-63
2023/09/17 09:51:06;;;;;;;22.30;19.58;;;18.40;99.90;;;;;;5114086;28;20043;-63
2023/09/17 09:53:32;;;;;;;23.52;20.58;;;18.40;99.90;;;;;;5118028;27;20565;-62
2023/09/17 09:55:57;;;;;;;20.98;18.92;;;18.30;99.90;;;;;;5125024;27;20159;-63
2023/09/17 09:58:24;;;;;;;22.63;20.30;;;18.30;99.90;;;;;;5129694;27;20047;-63
2023/09/17 10:00:50;;;;;;;21.70;19.60;;;18.30;99.90;;;;;;5122141;27;20032;-62
2023/09/17 10:03:17;;;;;;;22.73;20.30;;;18.30;99.90;;;;;;5117694;27;20089;-64
2023/09/17 10:05:44;;;;;;;21.98;18.25;;;18.30;99.90;;;;;;5114266;27;20084;-63
2023/09/17 10:08:17;;;;;;;22.73;20.48;;;18.20;99.90;;;;;;5117733;27;20218;-64
2023/09/17 10:10:42;;;;;;;19.20;17.33;;;18.30;99.90;;;;;;5117610;27;20406;-62
2023/09/17 10:13:10;;;;;;;21.52;19.33;;;18.30;99.90;;;;;;5124236;27;20043;-63
2023/09/17 10:15:37;;;;;;;21.42;19.13;;;18.30;99.90;;;;;;5115609;27;20468;-63
2023/09/17 10:18:04;;;;;;;19.58;17.55;;;18.30;99.90;;;;;;5113207;28;20074;-63
2023/09/17 10:20:30;;;;;;;19.80;17.98;;;18.30;99.90;;;;;;5114709;27;20071;-63
2023/09/17 10:22:57;;;;;;;20.33;18.23;;;18.30;99.90;;;;;;5122652;27;20038;-64
2023/09/17 10:25:24;;;;;;;22.73;18.35;;;18.30;99.90;;;;;;5121047;27;20496;-63
2023/09/17 10:27:52;;;;;;;22.13;18.98;;;18.40;99.90;;;;;;5112936;28;20043;-62
2023/09/17 10:30:18;;;;;;;21.80;19.48;;;18.40;99.90;;;;;;5122315;27;20043;-63
2023/09/17 10:32:47;;;;;;;22.05;19.50;;;18.50;99.90;;;;;;5112306;28;20100;-63
2023/09/17 10:35:14;;;;;;;21.25;19.05;;;18.50;99.90;;;;;;5112196;28;20101;-64
2023/09/17 10:37:40;;;;;;;22.70;20.40;;;18.60;99.90;;;;;;5095438;28;20196;-63
2023/09/17 10:40:12;;;;;;;22.27;19.80;;;18.70;99.90;;;;;;5118792;27;20039;-63
2023/09/17 10:42:41;;;;;;;21.57;18.73;;;18.70;99.90;;;;;;5117014;27;20525;-63
2023/09/17 10:45:08;;;;;;;21.42;19.05;;;18.80;99.90;;;;;;5112864;28;20551;-64
2023/09/17 10:47:37;;;;;;;21.83;19.63;;;18.80;99.90;;;;;;5114450;27;20036;-63
2023/09/17 10:50:04;;;;;;;21.83;19.58;;;18.80;99.90;;;;;;5117934;27;20378;-63
2023/09/17 10:52:33;;;;;;;22.85;20.55;;;18.80;99.90;;;;;;5135514;27;20037;-62
2023/09/17 10:54:59;;;;;;;21.98;19.77;;;18.80;99.90;;;;;;5134677;27;20041;-63
2023/09/17 10:57:46;;;;;;;20.88;18.67;;;18.70;99.90;;;;;;5145875;27;20385;-63
2023/09/17 11:00:20;;;;;;;23.33;20.67;;;18.70;99.90;;;;;;5145078;27;20114;-63
2023/09/17 11:02:58;;;;;;;22.40;19.83;;;18.60;99.90;;;;;;5138429;27;20164;-63
2023/09/17 11:05:27;;;;;;;22.77;20.35;;;18.60;99.90;;;;;;5153878;27;20094;-63
2023/09/17 11:08:02;;;;;;;22.85;20.45;;;18.60;99.90;;;;;;5135647;27;20420;-63
2023/09/17 11:10:28;;;;;;;21.90;19.75;;;18.60;99.90;;;;;;5118765;27;20046;-63
2023/09/17 11:12:54;;;;;;;20.77;18.50;;;18.70;99.90;;;;;;5128047;27;20053;-63
2023/09/17 11:15:20;;;;;;;22.83;20.52;;;18.80;99.90;;;;;;5126983;27;20034;-63
2023/09/17 11:17:49;;;;;;;22.75;20.35;;;18.90;99.90;;;;;;5119491;27;20047;-63
2023/09/17 11:20:20;;;;;;;22.52;20.13;;;19.10;99.90;;;;;;5114488;27;20050;-62
2023/09/17 11:22:52;;;;;;;21.40;19.30;;;19.50;99.90;;;;;;5122309;27;20060;-63
2023/09/17 11:25:39;;;;;;;21.98;19.73;;;19.80;99.90;;;;;;5116532;27;20034;-63
2023/09/17 11:28:13;;;;;;;22.58;20.27;;;19.90;99.90;;;;;;5135390;27;20059;-64
2023/09/17 11:30:59;;;;;;;21.13;18.92;;;20.00;99.90;;;;;;5098161;27;20091;-64
2023/09/17 11:33:26;;;;;;;21.02;18.92;;;19.90;99.90;;;;;;5133554;27;20053;-64
2023/09/17 11:35:56;;;;;;;21.30;19.20;;;19.90;99.90;;;;;;5120485;27;20087;-64
2023/09/17 11:38:27;;;;;;;21.52;19.25;;;19.80;99.90;;;;;;5151493;27;20054;-63
2023/09/17 11:41:10;;;;;;;22.70;19.67;;;19.80;99.90;;;;;;5135362;27;20038;-64
2023/09/17 11:43:43;;;;;;;21.10;18.98;;;19.80;99.90;;;;;;5117519;27;20039;-64
2023/09/17 11:46:11;;;;;;;20.48;18.48;;;19.80;99.90;;;;;;5129128;27;20570;-64
2023/09/17 11:48:37;;;;;;;21.77;19.48;;;19.70;99.90;;;;;;5125968;27;20497;-64
2023/09/17 11:51:20;;;;;;;22.27;19.98;;;19.60;99.90;;;;;;5129491;27;20172;-63
2023/09/17 11:54:06;;;;;;;19.85;17.92;;;19.60;99.90;;;;;;5134491;27;20046;-63
2023/09/17 11:56:36;;;;;;;22.98;20.58;;;19.60;99.90;;;;;;5141056;27;20105;-63
2023/09/17 11:59:08;;;;;;;22.75;20.42;;;19.60;99.90;;;;;;5132976;27;20046;-63
2023/09/17 12:01:35;;;;;;;22.75;19.77;;;19.60;99.90;;;;;;5113958;27;20078;-64
2023/09/17 12:04:04;;;;;;;24.33;21.70;;;19.50;99.90;;;;;;5122187;27;20031;-64
2023/09/17 12:06:29;;;;;;;22.30;19.90;;;19.60;99.90;;;;;;5105873;27;20047;-63
2023/09/17 12:08:59;;;;;;;21.75;19.45;;;19.60;99.90;;;;;;5119267;27;20035;-63
2023/09/17 12:11:26;;;;;;;23.92;21.08;;;19.60;99.90;;;;;;5124104;27;20473;-63
2023/09/17 12:13:53;;;;;;;22.75;20.45;;;19.70;99.90;;;;;;5131233;27;20160;-64
2023/09/17 12:16:27;;;;;;;25.02;21.05;;;19.70;99.90;;;;;;5132377;27;20061;-64
2023/09/17 12:18:54;;;;;;;22.67;20.38;;;19.60;99.90;;;;;;5122059;27;20039;-64
2023/09/17 12:21:22;;;;;;;23.80;21.02;;;19.60;99.90;;;;;;5126372;27;20038;-64
2023/09/17 12:23:57;;;;;;;24.35;21.73;;;19.50;99.90;;;;;;5123686;27;20492;-63
2023/09/17 12:26:37;;;;;;;26.20;21.42;;;19.50;99.90;;;;;;5121143;27;20091;-63
2023/09/17 12:29:10;;;;;;;26.42;21.20;;;19.50;99.90;;;;;;5116509;27;20035;-64